createdAt,value
2022-08-11T00:02:01.948Z,96711.56
2022-08-11T00:04:39.469Z,96709.08
2022-08-11T00:07:10.144Z,96706.17
2022-08-11T00:09:40.132Z,96707.31
2022-08-11T00:12:17.299Z,96702.97
2022-08-11T00:14:55.350Z,96706.27
2022-08-11T00:17:28.416Z,96704.79
2022-08-11T00:20:16.983Z,96704.31
2022-08-11T00:22:47.931Z,96705.01
2022-08-11T00:25:19.700Z,96707.17
2022-08-11T00:27:49.252Z,96710.69
2022-08-11T00:30:18.139Z,96711.42
2022-08-11T00:32:59.147Z,96710.02
2022-08-11T00:35:55.938Z,96710.21
2022-08-11T00:38:26.007Z,96706.27
2022-08-11T00:41:18.570Z,96703.98
2022-08-11T00:44:02.622Z,96704.93
2022-08-11T00:47:03.840Z,96710.71
2022-08-11T00:49:40.156Z,96710.03
2022-08-11T00:52:14.789Z,96713.56
2022-08-11T00:55:03.634Z,96709.60
2022-08-11T00:58:02.894Z,96708.79
2022-08-11T01:00:58.118Z,96708.36
2022-08-11T01:03:29.531Z,96711.83
2022-08-11T01:06:05.386Z,96710.30
2022-08-11T01:09:07.118Z,96709.16
2022-08-11T01:11:55.840Z,96708.88
2022-08-11T01:14:56.059Z,96705.59
2022-08-11T01:17:27.348Z,96704.01
2022-08-11T01:20:48.695Z,96703.09
2022-08-11T01:23:41.638Z,96697.95
2022-08-11T01:26:19.131Z,96695.74
2022-08-11T01:29:10.589Z,96697.30
2022-08-11T01:32:00.949Z,96694.89
2022-08-11T01:35:18.919Z,96694.39
2022-08-11T01:38:18.403Z,96689.65
2022-08-11T01:41:14.666Z,96688.05
2022-08-11T01:44:26.992Z,96689.71
2022-08-11T01:47:33.588Z,96688.41
2022-08-11T01:50:31.578Z,96688.34
2022-08-11T01:53:22.426Z,96688.35
2022-08-11T01:56:13.952Z,96689.75
2022-08-11T01:59:00.304Z,96688.34
2022-08-11T02:01:53.903Z,96682.70
2022-08-11T02:04:59.160Z,96688.69
2022-08-11T02:07:53.609Z,96691.27
2022-08-11T02:11:04.584Z,96691.63
2022-08-11T02:13:41.520Z,96688.05
2022-08-11T02:16:15.895Z,96686.02
2022-08-11T02:19:28.570Z,96685.64
2022-08-11T02:22:42.534Z,96683.98
2022-08-11T02:25:41.414Z,96681.55
2022-08-11T02:28:29.507Z,96684.30
2022-08-11T02:32:28.509Z,96681.55
2022-08-11T02:34:59.973Z,96677.98
2022-08-11T02:37:32.147Z,96672.92
2022-08-11T02:40:10.946Z,96670.67
2022-08-11T02:42:45.628Z,96673.39
2022-08-11T02:45:29.538Z,96677.57
2022-08-11T02:48:25.691Z,96677.00
2022-08-11T02:51:24.969Z,96680.17
2022-08-11T02:54:26.646Z,96679.31
2022-08-11T02:57:05.925Z,96677.58
2022-08-11T03:00:10.663Z,96676.33
2022-08-11T03:02:41.382Z,96678.20
2022-08-11T03:05:14.071Z,96678.77
2022-08-11T03:08:15.527Z,96677.21
2022-08-11T03:11:21.056Z,96678.15
2022-08-11T03:14:21.912Z,96679.87
2022-08-11T03:16:50.114Z,96683.32
2022-08-11T03:19:27.417Z,96682.52
2022-08-11T03:22:34.470Z,96684.40
2022-08-11T03:25:31.833Z,96686.04
2022-08-11T03:28:22.221Z,96685.41
2022-08-11T03:31:07.373Z,96686.45
2022-08-11T03:34:06.710Z,96685.86
2022-08-11T03:37:33.728Z,96680.12
2022-08-11T03:40:38.917Z,96679.96
2022-08-11T03:43:19.224Z,96676.63
2022-08-11T03:46:03.146Z,96674.73
2022-08-11T03:48:57.499Z,96670.91
2022-08-11T03:51:44.808Z,96670.34
2022-08-11T03:54:59.499Z,96674.48
2022-08-11T03:57:50.518Z,96669.50
2022-08-11T04:00:56.251Z,96667.14
2022-08-11T04:04:35.832Z,96669.29
2022-08-11T04:07:23.637Z,96670.99
2022-08-11T04:10:29.002Z,96665.89
2022-08-11T04:13:22.416Z,96665.79
2022-08-11T04:16:25.111Z,96673.55
2022-08-11T04:19:28.476Z,96674.64
2022-08-11T04:22:06.630Z,96675.81
2022-08-11T04:24:56.647Z,96672.69
2022-08-11T04:27:41.823Z,96677.88
2022-08-11T04:30:20.651Z,96678.19
2022-08-11T04:33:26.800Z,96679.85
2022-08-11T04:36:09.938Z,96682.82
2022-08-11T04:39:03.413Z,96682.77
2022-08-11T04:42:12.498Z,96684.69
2022-08-11T04:44:43.594Z,96687.02
2022-08-11T04:48:01.932Z,96686.48
2022-08-11T04:51:16.460Z,96687.86
2022-08-11T04:54:28.447Z,96687.27
2022-08-11T04:57:25.467Z,96690.52
2022-08-11T05:00:22.682Z,96692.04
2022-08-11T05:03:09.554Z,96691.54
2022-08-11T05:06:02.994Z,96696.11
2022-08-11T05:09:18.820Z,96698.39
2022-08-11T05:12:24.025Z,96693.69
2022-08-11T05:15:12.625Z,96694.95
2022-08-11T05:18:16.577Z,96696.02
2022-08-11T05:21:11.923Z,96688.63
2022-08-11T05:24:08.014Z,96689.77
2022-08-11T05:27:12.848Z,96689.71
2022-08-11T05:30:15.690Z,96693.20
2022-08-11T05:33:05.493Z,96692.80
2022-08-11T05:36:09.071Z,96696.60
2022-08-11T05:38:56.986Z,96695.45
2022-08-11T05:41:48.046Z,96690.73
2022-08-11T05:44:39.926Z,96689.67
2022-08-11T05:47:27.887Z,96681.10
2022-08-11T05:50:15.696Z,96678.41
2022-08-11T05:53:09.242Z,96680.46
2022-08-11T05:56:03.701Z,96678.42
2022-08-11T05:58:38.198Z,96678.85
2022-08-11T06:01:32.037Z,96680.25
2022-08-11T06:04:15.109Z,96680.30
2022-08-11T06:07:06.566Z,96681.10
2022-08-11T06:09:49.915Z,96676.94
2022-08-11T06:12:24.296Z,96672.92
2022-08-11T06:14:57.461Z,96666.86
2022-08-11T06:17:38.946Z,96670.08
2022-08-11T06:20:13.369Z,96670.42
2022-08-11T06:23:05.824Z,96674.34
2022-08-11T06:25:36.588Z,96675.70
2022-08-11T06:28:07.289Z,96674.77
2022-08-11T06:30:40.636Z,96677.34
2022-08-11T06:33:12.718Z,96676.80
2022-08-11T06:36:05.859Z,96675.52
2022-08-11T06:38:41.970Z,96671.42
2022-08-11T06:41:30.751Z,96671.67
2022-08-11T06:44:11.130Z,96676.06
2022-08-11T06:47:08.025Z,96677.72
2022-08-11T06:50:02.119Z,96679.05
2022-08-11T06:52:36.870Z,96676.23
2022-08-11T06:55:56.548Z,96675.41
2022-08-11T06:58:51.287Z,96673.20
2022-08-11T07:01:35.844Z,96678.14
2022-08-11T07:04:10.672Z,96677.13
2022-08-11T07:07:37.145Z,96681.38
2022-08-11T07:11:05.976Z,96680.09
2022-08-11T07:13:57.248Z,96675.13
2022-08-11T07:16:35.639Z,96678.91
2022-08-11T07:19:26.471Z,96677.23
2022-08-11T07:22:16.221Z,96674.53
2022-08-11T07:25:12.188Z,96672.65
2022-08-11T07:28:11.168Z,96670.55
2022-08-11T07:30:41.876Z,96672.80
2022-08-11T07:33:13.442Z,96672.70
2022-08-11T07:36:04.964Z,96667.61
2022-08-11T07:38:47.515Z,96664.64
2022-08-11T07:41:19.850Z,96660.35
2022-08-11T07:43:53.040Z,96663.16
2022-08-11T07:46:41.934Z,96660.04
2022-08-11T07:49:30.460Z,96658.09
2022-08-11T07:52:17.967Z,96656.48
2022-08-11T07:54:51.336Z,96650.47
2022-08-11T07:58:13.833Z,96650.16
2022-08-11T08:00:51.625Z,96649.35
2022-08-11T08:03:39.567Z,96648.16
2022-08-11T08:06:42.962Z,96652.02
2022-08-11T08:09:30.748Z,96644.21
2022-08-11T08:12:21.109Z,96641.52
2022-08-11T08:15:10.587Z,96640.27
2022-08-11T08:18:25.413Z,96637.05
2022-08-11T08:20:50.446Z,96632.30
2022-08-11T08:23:34.602Z,96630.89
2022-08-11T08:26:27.832Z,96628.73
2022-08-11T08:29:18.580Z,96623.89
2022-08-11T08:31:48.880Z,96622.50
2022-08-11T08:34:19.161Z,96622.19
2022-08-11T08:36:49.942Z,96619.02
2022-08-11T08:39:22.621Z,96617.45
2022-08-11T08:41:56.502Z,96617.10
2022-08-11T08:44:45.028Z,96616.33
2022-08-11T08:47:42.346Z,96611.89
2022-08-11T08:50:16.346Z,96615.88
2022-08-11T08:53:07.036Z,96620.23
2022-08-11T08:55:35.487Z,96619.50
2022-08-11T08:58:04.333Z,96618.40
2022-08-11T09:00:46.175Z,96621.05
2022-08-11T09:03:40.663Z,96614.67
2022-08-11T09:06:03.632Z,96610.27
2022-08-11T09:08:34.126Z,96611.77
2022-08-11T09:11:23.943Z,96610.75
2022-08-11T09:14:05.017Z,96608.27
2022-08-11T09:16:37.377Z,96607.64
2022-08-11T09:19:08.420Z,96605.59
2022-08-11T09:21:48.269Z,96601.12
2022-08-11T09:24:38.237Z,96600.05
2022-08-11T09:27:08.639Z,96601.69
2022-08-11T09:29:39.212Z,96598.45
2022-08-11T09:32:08.665Z,96594.27
2022-08-11T09:34:39.276Z,96596.58
2022-08-11T09:37:54.806Z,96594.43
2022-08-11T09:40:29.412Z,96590.52
2022-08-11T09:43:18.733Z,96587.84
2022-08-11T09:45:52.235Z,96594.30
2022-08-11T09:48:24.342Z,96586.45
2022-08-11T09:50:56.025Z,96584.58
2022-08-11T09:53:41.064Z,96582.60
2022-08-11T09:56:33.756Z,96584.55
2022-08-11T09:59:04.775Z,96584.82
2022-08-11T10:02:18.687Z,96579.38
2022-08-11T10:04:48.736Z,96579.95
2022-08-11T10:07:20.545Z,96581.18
2022-08-11T10:10:05.976Z,96578.52
2022-08-11T10:12:37.452Z,96577.11
2022-08-11T10:15:28.614Z,96580.19
2022-08-11T10:18:25.974Z,96577.98
2022-08-11T10:21:03.685Z,96574.56
2022-08-11T10:24:01.287Z,96569.35
2022-08-11T10:26:53.986Z,96574.98
2022-08-11T10:29:55.186Z,96574.23
2022-08-11T10:32:58.832Z,96569.61
2022-08-11T10:35:32.322Z,96567.89
2022-08-11T10:38:05.885Z,96561.72
2022-08-11T10:40:39.865Z,96561.23
2022-08-11T10:43:57.206Z,96559.31
2022-08-11T10:46:29.717Z,96558.55
2022-08-11T10:49:00.526Z,96556.38
2022-08-11T10:51:51.212Z,96560.05
2022-08-11T10:54:41.806Z,96557.48
2022-08-11T10:57:30.867Z,96553.51
2022-08-11T11:00:00.057Z,96551.30
2022-08-11T11:02:29.398Z,96548.27
2022-08-11T11:05:10.342Z,96548.40
2022-08-11T11:08:00.553Z,96548.95
2022-08-11T11:10:29.213Z,96546.08
2022-08-11T11:13:18.177Z,96543.97
2022-08-11T11:16:06.846Z,96543.41
2022-08-11T11:18:37.269Z,96539.41
2022-08-11T11:21:08.329Z,96534.89
2022-08-11T11:24:05.264Z,96537.25
2022-08-11T11:27:00.951Z,96532.15
2022-08-11T11:29:51.001Z,96525.08
2022-08-11T11:32:53.319Z,96522.59
2022-08-11T11:35:44.956Z,96521.52
2022-08-11T11:38:14.356Z,96519.13
2022-08-11T11:40:43.511Z,96520.30
2022-08-11T11:43:12.533Z,96517.38
2022-08-11T11:45:42.504Z,96514.02
2022-08-11T11:48:12.497Z,96517.79
2022-08-11T11:50:41.461Z,96514.96
2022-08-11T11:53:12.711Z,96515.21
2022-08-11T11:55:42.235Z,96511.48
2022-08-11T11:58:29.596Z,96514.69
2022-08-11T12:01:20.328Z,96512.45
2022-08-11T12:03:52.109Z,96507.42
2022-08-11T12:06:23.479Z,96503.41
2022-08-11T12:08:55.782Z,96495.80
2022-08-11T12:11:45.512Z,96488.65
2022-08-11T12:14:20.494Z,96486.70
2022-08-11T12:16:49.864Z,96478.55
2022-08-11T12:19:23.154Z,96476.23
2022-08-11T12:22:14.082Z,96467.04
2022-08-11T12:25:02.128Z,96472.28
2022-08-11T12:27:31.711Z,96474.00
2022-08-11T12:30:11.511Z,96471.11
2022-08-11T12:32:42.052Z,96470.86
2022-08-11T12:35:11.687Z,96477.94
2022-08-11T12:37:45.779Z,96474.27
2022-08-11T12:41:11.763Z,96469.30
2022-08-11T12:43:56.926Z,96469.39
2022-08-11T12:46:32.165Z,96465.09
2022-08-11T12:49:29.280Z,96464.29
2022-08-11T12:52:14.924Z,96461.41
2022-08-11T12:55:00.228Z,96457.98
2022-08-11T12:57:55.859Z,96457.88
2022-08-11T13:00:44.637Z,96457.60
2022-08-11T13:03:33.554Z,96460.77
2022-08-11T13:06:04.167Z,96464.08
2022-08-11T13:08:37.198Z,96459.71
2022-08-11T13:11:55.891Z,96460.42
2022-08-11T13:14:16.513Z,96455.30
2022-08-11T13:17:05.889Z,96452.84
2022-08-11T13:19:35.480Z,96452.95
2022-08-11T13:22:07.625Z,96446.17
2022-08-11T13:24:37.109Z,96442.39
2022-08-11T13:27:06.921Z,96440.68
2022-08-11T13:29:36.667Z,96439.31
2022-08-11T13:32:05.216Z,96442.05
2022-08-11T13:34:35.567Z,96438.37
2022-08-11T13:37:05.631Z,96439.40
2022-08-11T13:39:36.436Z,96435.77
2022-08-11T13:42:06.030Z,96430.23
2022-08-11T13:44:37.407Z,96428.38
2022-08-11T13:47:08.840Z,96423.22
2022-08-11T13:49:41.060Z,96422.02
2022-08-11T13:52:15.927Z,96416.30
2022-08-11T13:54:48.426Z,96413.83
2022-08-11T13:58:08.649Z,96414.05
2022-08-11T14:00:13.307Z,96413.02
2022-08-11T14:02:54.952Z,96422.13
2022-08-11T14:05:28.828Z,96421.69
2022-08-11T14:08:03.116Z,96422.01
2022-08-11T14:10:34.240Z,96423.64
2022-08-11T14:13:27.736Z,96425.80
2022-08-11T14:16:02.437Z,96419.90
2022-08-11T14:18:33.562Z,96420.58
2022-08-11T14:21:23.848Z,96420.62
2022-08-11T14:24:01.344Z,96430.69
2022-08-11T14:26:32.036Z,96428.39
2022-08-11T14:29:08.659Z,96426.65
2022-08-11T14:32:02.986Z,96424.83
2022-08-11T14:34:34.745Z,96424.04
2022-08-11T14:37:13.312Z,96420.39
2022-08-11T14:39:48.887Z,96418.86
2022-08-11T14:42:38.696Z,96418.41
2022-08-11T14:45:54.638Z,96419.33
2022-08-11T14:48:17.790Z,96418.05
2022-08-11T14:50:47.366Z,96418.45
2022-08-11T14:53:18.704Z,96418.92
2022-08-11T14:56:10.220Z,96420.75
2022-08-11T14:58:43.670Z,96415.84
2022-08-11T15:01:31.779Z,96412.82
2022-08-11T15:04:34.391Z,96413.09
2022-08-11T15:06:49.232Z,96407.92
2022-08-11T15:09:18.738Z,96411.41
2022-08-11T15:12:32.965Z,96407.36
2022-08-11T15:15:26.470Z,96405.50
2022-08-11T15:17:57.292Z,96405.07
2022-08-11T15:20:48.246Z,96402.17
2022-08-11T15:23:40.965Z,96400.85
2022-08-11T15:26:14.522Z,96396.83
2022-08-11T15:29:07.033Z,96394.89
2022-08-11T15:31:57.273Z,96391.21
2022-08-11T15:34:48.419Z,96391.83
2022-08-11T15:37:31.102Z,96393.48
2022-08-11T15:41:01.160Z,96392.81
2022-08-11T15:43:56.902Z,96392.05
2022-08-11T15:46:35.900Z,96386.52
2022-08-11T15:49:21.737Z,96378.27
2022-08-11T15:52:10.200Z,96378.67
2022-08-11T15:54:44.375Z,96381.13
2022-08-11T15:57:40.018Z,96382.38
2022-08-11T16:00:28.725Z,96383.12
2022-08-11T16:03:17.449Z,96385.80
2022-08-11T16:05:50.776Z,96386.02
2022-08-11T16:08:32.877Z,96380.61
2022-08-11T16:11:04.265Z,96382.25
2022-08-11T16:13:40.836Z,96387.16
2022-08-11T16:16:14.497Z,96387.86
2022-08-11T16:18:54.100Z,96390.08
2022-08-11T16:21:36.189Z,96393.83
2022-08-11T16:27:05.817Z,96394.33
2022-08-11T16:27:13.000Z,96396.63
2022-08-11T16:29:46.739Z,96396.02
2022-08-11T16:32:23.984Z,96398.13
2022-08-11T16:35:21.138Z,96396.63
2022-08-11T16:38:10.152Z,96393.90
2022-08-11T16:40:39.992Z,96397.34
2022-08-11T16:43:30.966Z,96399.17
2022-08-11T16:46:21.117Z,96398.44
2022-08-11T16:48:51.030Z,96397.92
2022-08-11T16:51:21.283Z,96399.04
2022-08-11T16:54:03.694Z,96399.98
2022-08-11T16:56:39.186Z,96399.55
2022-08-11T16:59:19.868Z,96401.02
2022-08-11T17:01:58.335Z,96402.60
2022-08-11T17:05:05.709Z,96400.82
2022-08-11T17:07:56.489Z,96403.34
2022-08-11T17:10:55.684Z,96400.24
2022-08-11T17:13:37.078Z,96397.44
2022-08-11T17:16:12.922Z,96392.70
2022-08-11T17:18:50.870Z,96392.86
2022-08-11T17:21:24.073Z,96396.36
2022-08-11T17:23:56.330Z,96396.50
2022-08-11T17:26:52.299Z,96396.61
2022-08-11T17:29:25.396Z,96403.61
2022-08-11T17:32:14.895Z,96404.70
2022-08-11T17:35:03.599Z,96406.69
2022-08-11T17:37:34.803Z,96406.95
2022-08-11T17:40:07.268Z,96408.58
2022-08-11T17:42:56.988Z,96410.52
2022-08-11T17:45:45.532Z,96413.63
2022-08-11T17:48:27.219Z,96415.77
2022-08-11T17:51:09.021Z,96415.95
2022-08-11T17:54:24.116Z,96417.29
2022-08-11T17:57:20.183Z,96421.05
2022-08-11T17:59:53.254Z,96423.55
2022-08-11T18:02:54.345Z,96425.88
2022-08-11T18:05:27.311Z,96426.95
2022-08-11T18:08:17.392Z,96429.05
2022-08-11T18:11:06.729Z,96428.38
2022-08-11T18:13:57.087Z,96435.06
2022-08-11T18:16:44.254Z,96434.27
2022-08-11T18:19:31.474Z,96439.14
2022-08-11T18:22:28.486Z,96443.52
2022-08-11T18:25:32.941Z,96446.92
2022-08-11T18:28:24.103Z,96448.90
2022-08-11T18:31:18.199Z,96454.65
2022-08-11T18:34:13.555Z,96455.83
2022-08-11T18:37:24.753Z,96458.09
2022-08-11T18:40:21.679Z,96462.66
2022-08-11T18:43:11.922Z,96470.39
2022-08-11T18:46:06.701Z,96476.70
2022-08-11T18:49:00.861Z,96479.02
2022-08-11T18:51:48.175Z,96479.85
2022-08-11T18:54:38.322Z,96484.64
2022-08-11T18:57:27.543Z,96484.77
2022-08-11T19:00:21.401Z,96488.89
2022-08-11T19:03:09.421Z,96486.21
2022-08-11T19:06:32.508Z,96486.55
2022-08-11T19:09:12.341Z,96487.89
2022-08-11T19:11:59.974Z,96490.54
2022-08-11T19:14:49.444Z,96495.10
2022-08-11T19:17:45.958Z,96493.29
2022-08-11T19:20:37.397Z,96497.09
2022-08-11T19:23:27.821Z,96498.86
2022-08-11T19:26:16.906Z,96496.98
2022-08-11T19:29:07.782Z,96495.79
2022-08-11T19:31:57.043Z,96501.33
2022-08-11T19:34:45.434Z,96503.75
2022-08-11T19:37:33.171Z,96499.42
2022-08-11T19:40:28.700Z,96499.14
2022-08-11T19:43:23.622Z,96501.64
2022-08-11T19:46:17.257Z,96504.57
2022-08-11T19:49:08.465Z,96505.20
2022-08-11T19:51:56.952Z,96507.94
2022-08-11T19:54:47.747Z,96505.09
2022-08-11T19:57:40.019Z,96504.20
2022-08-11T20:00:32.503Z,96504.11
2022-08-11T20:03:22.778Z,96504.23
2022-08-11T20:06:11.089Z,96502.88
2022-08-11T20:09:01.749Z,96503.35
2022-08-11T20:11:50.510Z,96502.27
2022-08-11T20:14:40.121Z,96507.55
2022-08-11T20:17:30.438Z,96510.20
2022-08-11T20:20:21.062Z,96512.54
2022-08-11T20:23:11.736Z,96511.30
2022-08-11T20:26:14.134Z,96510.39
2022-08-11T20:29:09.144Z,96515.20
2022-08-11T20:31:57.550Z,96516.61
2022-08-11T20:34:45.042Z,96517.71
2022-08-11T20:37:33.237Z,96517.85
2022-08-11T20:40:23.480Z,96521.41
2022-08-11T20:44:05.140Z,96525.73
2022-08-11T20:46:22.106Z,96531.91
2022-08-11T20:49:12.157Z,96532.52
2022-08-11T20:52:01.688Z,96535.04
2022-08-11T20:54:55.322Z,96536.79
2022-08-11T20:58:03.915Z,96539.44
2022-08-11T21:00:53.203Z,96543.70
2022-08-11T21:06:49.252Z,96548.64
2022-08-11T21:09:58.676Z,96547.89
2022-08-11T21:12:50.704Z,96553.49
2022-08-11T21:15:47.324Z,96558.42
2022-08-11T21:18:51.526Z,96555.54
2022-08-11T21:21:45.599Z,96556.30
2022-08-11T21:24:37.601Z,96559.78
2022-08-11T21:27:34.507Z,96562.32
2022-08-11T21:30:22.764Z,96561.86
2022-08-11T21:33:11.850Z,96564.84
2022-08-11T21:35:59.877Z,96568.17
2022-08-11T21:38:47.927Z,96569.64
2022-08-11T21:41:37.142Z,96572.84
2022-08-11T21:44:26.052Z,96576.05
2022-08-11T21:47:19.669Z,96578.86
2022-08-11T21:50:22.739Z,96580.71
2022-08-11T21:53:11.363Z,96582.33
2022-08-11T21:55:59.844Z,96585.50
2022-08-11T21:58:48.657Z,96583.48
2022-08-11T22:01:37.533Z,96585.33
2022-08-11T22:04:25.528Z,96581.39
2022-08-11T22:07:13.535Z,96592.14
2022-08-11T22:10:00.386Z,96596.98
2022-08-11T22:13:07.165Z,96596.94
2022-08-11T22:15:56.590Z,96597.93
2022-08-11T22:18:44.872Z,96601.77
2022-08-11T22:21:56.872Z,96602.45
2022-08-11T22:24:44.147Z,96598.64
2022-08-11T22:27:32.759Z,96600.02
2022-08-11T22:30:19.948Z,96602.83
2022-08-11T22:33:07.673Z,96601.36
2022-08-11T22:35:57.357Z,96597.92
2022-08-11T22:38:45.052Z,96599.43
2022-08-11T22:41:32.869Z,96599.11
2022-08-11T22:44:19.848Z,96601.73
2022-08-11T22:47:10.020Z,96598.30
2022-08-11T22:49:58.630Z,96600.83
2022-08-11T22:52:48.137Z,96601.98
2022-08-11T22:55:36.540Z,96601.09
2022-08-11T22:58:25.768Z,96599.88
2022-08-11T23:01:13.792Z,96597.34
2022-08-11T23:04:01.619Z,96598.45
2022-08-11T23:06:48.979Z,96593.74
2022-08-11T23:09:36.733Z,96590.55
2022-08-11T23:12:24.742Z,96590.36
2022-08-11T23:15:13.282Z,96585.41
2022-08-11T23:18:00.948Z,96581.66
2022-08-11T23:20:53.003Z,96581.84
2022-08-11T23:23:42.792Z,96587.13
2022-08-11T23:26:30.675Z,96587.41
2022-08-11T23:29:18.975Z,96589.14
2022-08-11T23:32:08.266Z,96591.26
2022-08-11T23:35:04.955Z,96586.00
2022-08-11T23:38:06.931Z,96583.41
2022-08-11T23:40:54.740Z,96583.65
2022-08-11T23:43:43.408Z,96584.83
2022-08-11T23:46:30.696Z,96583.55
2022-08-11T23:49:24.602Z,96586.02
2022-08-11T23:52:12.429Z,96588.07
2022-08-11T23:55:00.281Z,96587.23
2022-08-11T23:57:48.830Z,96582.16
